createdAt,value
2023-02-25T00:02:12.432Z,1.92
2023-02-25T00:04:39.993Z,2.02
2023-02-25T00:07:06.425Z,2.22
2023-02-25T00:09:32.965Z,1.81
2023-02-25T00:12:00.336Z,1.72
2023-02-25T00:14:26.908Z,1.69
2023-02-25T00:16:55.179Z,1.63
2023-02-25T00:19:21.861Z,1.88
2023-02-25T00:21:48.374Z,1.83
2023-02-25T00:24:16.813Z,1.58
2023-02-25T00:26:43.855Z,1.42
2023-02-25T00:29:14.155Z,1.31
2023-02-25T00:31:40.759Z,1.07
2023-02-25T00:34:08.754Z,1.16
2023-02-25T00:36:35.469Z,1.23
2023-02-25T00:39:01.952Z,1.35
2023-02-25T00:41:30.108Z,1.63
2023-02-25T00:43:59.049Z,1.44
2023-02-25T00:46:27.258Z,1.86
2023-02-25T00:48:53.843Z,1.58
2023-02-25T00:51:24.038Z,1.49
2023-02-25T00:53:50.969Z,1.39
2023-02-25T00:56:19.325Z,1.17
2023-02-25T00:58:47.933Z,1.08
2023-02-25T01:01:20.151Z,1.42
2023-02-25T01:03:48.339Z,1.58
2023-02-25T01:06:15.871Z,1.67
2023-02-25T01:08:43.080Z,1.76
2023-02-25T01:11:15.503Z,1.56
2023-02-25T01:13:42.605Z,1.31
2023-02-25T01:16:14.099Z,1.39
2023-02-25T01:18:41.308Z,1.18
2023-02-25T01:21:16.866Z,1.84
2023-02-25T01:23:43.943Z,2.03
2023-02-25T01:26:10.557Z,1.86
2023-02-25T01:28:38.037Z,1.69
2023-02-25T01:31:07.570Z,1.78
2023-02-25T01:33:37.652Z,1.89
2023-02-25T01:36:05.663Z,1.63
2023-02-25T01:38:32.917Z,1.64
2023-02-25T01:41:06.204Z,1.82
2023-02-25T01:43:32.616Z,2.10
2023-02-25T01:45:59.027Z,2.12
2023-02-25T01:48:30.012Z,1.98
2023-02-25T01:51:02.220Z,1.79
2023-02-25T01:53:33.036Z,1.74
2023-02-25T01:56:02.413Z,1.34
2023-02-25T01:58:30.008Z,1.42
2023-02-25T02:00:56.555Z,1.47
2023-02-25T02:03:24.903Z,1.34
2023-02-25T02:06:01.480Z,1.42
2023-02-25T02:08:28.552Z,1.32
2023-02-25T02:10:55.946Z,1.14
2023-02-25T02:13:23.442Z,1.16
2023-02-25T02:15:59.534Z,1.09
2023-02-25T02:18:31.401Z,0.92
2023-02-25T02:21:09.755Z,1.26
2023-02-25T02:24:15.612Z,1.27
2023-02-25T02:26:51.786Z,1.22
2023-02-25T02:29:55.192Z,1.14
2023-02-25T02:32:31.089Z,1.08
2023-02-25T02:35:04.770Z,1.06
2023-02-25T02:37:39.950Z,1.08
2023-02-25T02:40:21.689Z,1.22
2023-02-25T02:43:00.592Z,1.20
2023-02-25T02:45:33.889Z,1.09
2023-02-25T02:48:05.186Z,1.07
2023-02-25T02:50:36.386Z,0.98
2023-02-25T02:53:07.377Z,0.96
2023-02-25T02:55:38.751Z,0.82
2023-02-25T02:58:12.703Z,0.86
2023-02-25T03:00:42.506Z,1.02
2023-02-25T03:03:14.367Z,0.88
2023-02-25T03:05:44.231Z,0.90
2023-02-25T03:08:17.595Z,0.99
2023-02-25T03:10:44.687Z,0.80
2023-02-25T03:13:11.548Z,0.92
2023-02-25T03:15:40.219Z,0.83
2023-02-25T03:18:16.669Z,0.88
2023-02-25T03:20:46.478Z,0.94
2023-02-25T03:23:16.626Z,1.00
2023-02-25T03:25:47.853Z,0.77
2023-02-25T03:28:24.122Z,0.88
2023-02-25T03:30:56.342Z,0.88
2023-02-25T03:33:32.273Z,0.90
2023-02-25T03:36:01.012Z,0.83
2023-02-25T03:38:31.287Z,1.19
2023-02-25T03:41:01.203Z,1.32
2023-02-25T03:43:32.467Z,1.36
2023-02-25T03:45:59.935Z,1.33
2023-02-25T03:48:28.897Z,1.45
2023-02-25T03:50:59.972Z,1.19
2023-02-25T03:53:27.745Z,1.27
2023-02-25T03:56:04.673Z,1.29
2023-02-25T03:58:33.289Z,1.22
2023-02-25T04:01:03.424Z,1.05
2023-02-25T04:03:32.266Z,1.22
2023-02-25T04:05:59.130Z,1.08
2023-02-25T04:08:26.411Z,1.14
2023-02-25T04:10:52.857Z,1.18
2023-02-25T04:13:20.163Z,1.08
2023-02-25T04:15:48.540Z,1.03
2023-02-25T04:18:15.774Z,1.00
2023-02-25T04:20:43.148Z,1.04
2023-02-25T04:23:12.912Z,1.00
2023-02-25T04:25:39.374Z,1.06
2023-02-25T04:28:06.270Z,0.94
2023-02-25T04:30:34.381Z,0.98
2023-02-25T04:33:01.662Z,0.91
2023-02-25T04:35:28.091Z,1.10
2023-02-25T04:37:55.227Z,1.32
2023-02-25T04:40:23.355Z,1.11
2023-02-25T04:42:49.936Z,1.01
2023-02-25T04:45:16.922Z,0.99
2023-02-25T04:47:43.853Z,0.98
2023-02-25T04:50:11.984Z,1.07
2023-02-25T04:52:38.446Z,1.16
2023-02-25T04:55:09.007Z,0.96
2023-02-25T04:57:37.453Z,0.89
2023-02-25T05:00:09.417Z,1.10
2023-02-25T05:02:35.918Z,1.01
2023-02-25T05:05:04.897Z,0.99
2023-02-25T05:07:31.354Z,1.05
2023-02-25T05:09:57.859Z,1.01
2023-02-25T05:12:25.052Z,1.15
2023-02-25T05:14:51.437Z,1.16
2023-02-25T05:17:18.419Z,1.26
2023-02-25T05:19:44.809Z,1.08
2023-02-25T05:22:11.211Z,1.12
2023-02-25T05:24:38.394Z,0.94
2023-02-25T05:27:08.460Z,1.02
2023-02-25T05:29:35.775Z,0.99
2023-02-25T05:32:02.907Z,1.01
2023-02-25T05:34:29.585Z,1.08
2023-02-25T05:36:56.024Z,1.00
2023-02-25T05:39:22.418Z,1.01
2023-02-25T05:41:48.870Z,0.96
2023-02-25T05:44:15.686Z,1.08
2023-02-25T05:46:42.753Z,1.20
2023-02-25T05:49:09.766Z,1.05
2023-02-25T05:51:36.289Z,1.01
2023-02-25T05:54:03.109Z,1.11
2023-02-25T05:56:32.168Z,1.05
2023-02-25T05:58:58.955Z,1.05
2023-02-25T06:01:28.579Z,1.10
2023-02-25T06:03:57.729Z,1.25
2023-02-25T06:06:26.207Z,1.18
2023-02-25T06:08:53.305Z,1.09
2023-02-25T06:11:21.443Z,1.23
2023-02-25T06:13:48.906Z,1.27
2023-02-25T06:16:15.725Z,1.19
2023-02-25T06:18:42.499Z,1.27
2023-02-25T06:21:13.436Z,1.26
2023-02-25T06:23:41.493Z,1.28
2023-02-25T06:26:10.587Z,1.57
2023-02-25T06:28:37.754Z,1.71
2023-02-25T06:31:08.726Z,1.73
2023-02-25T06:33:35.271Z,1.55
2023-02-25T06:36:02.569Z,1.87
2023-02-25T06:38:29.670Z,1.90
2023-02-25T06:40:56.098Z,1.85
2023-02-25T06:43:22.779Z,1.82
2023-02-25T06:45:49.221Z,1.75
2023-02-25T06:48:15.739Z,2.21
2023-02-25T06:50:42.434Z,2.00
2023-02-25T06:53:09.111Z,2.00
2023-02-25T06:55:38.300Z,2.00
2023-02-25T06:58:04.759Z,2.00
2023-02-25T07:00:31.398Z,2.02
2023-02-25T07:02:57.855Z,2.16
2023-02-25T07:05:24.260Z,2.05
2023-02-25T07:07:50.864Z,1.99
2023-02-25T07:10:17.540Z,2.10
2023-02-25T07:12:44.591Z,2.21
2023-02-25T07:15:11.048Z,1.99
2023-02-25T07:17:37.737Z,2.01
2023-02-25T07:20:04.896Z,1.86
2023-02-25T07:22:31.408Z,1.87
2023-02-25T07:24:58.500Z,1.94
2023-02-25T07:27:25.001Z,2.09
2023-02-25T07:29:52.112Z,1.85
2023-02-25T07:32:18.701Z,1.89
2023-02-25T07:34:45.283Z,1.81
2023-02-25T07:37:12.301Z,1.77
2023-02-25T07:39:38.718Z,1.80
2023-02-25T07:42:06.435Z,1.76
2023-02-25T07:44:35.533Z,2.34
2023-02-25T07:47:02.832Z,2.85
2023-02-25T07:49:29.213Z,2.92
2023-02-25T07:51:55.660Z,3.19
2023-02-25T07:54:22.665Z,2.65
2023-02-25T07:56:50.656Z,2.67
2023-02-25T07:59:17.326Z,2.83
2023-02-25T08:01:43.803Z,2.71
2023-02-25T08:04:11.139Z,2.79
2023-02-25T08:06:39.835Z,2.29
2023-02-25T08:09:06.849Z,2.41
2023-02-25T08:11:33.370Z,2.73
2023-02-25T08:14:00.218Z,3.06
2023-02-25T08:16:26.873Z,2.90
2023-02-25T08:18:54.041Z,2.91
2023-02-25T08:21:22.952Z,3.06
2023-02-25T08:23:49.791Z,2.46
2023-02-25T08:26:17.173Z,2.80
2023-02-25T08:28:44.571Z,2.44
2023-02-25T08:31:11.855Z,2.45
2023-02-25T08:33:39.456Z,2.61
2023-02-25T08:36:08.871Z,2.78
2023-02-25T08:38:36.879Z,3.01
2023-02-25T08:41:03.549Z,3.26
2023-02-25T08:43:31.323Z,3.43
2023-02-25T08:45:58.321Z,3.57
2023-02-25T08:48:24.919Z,3.53
2023-02-25T08:50:51.614Z,3.69
2023-02-25T08:53:18.568Z,3.09
2023-02-25T08:55:46.578Z,3.04
2023-02-25T08:58:13.223Z,2.95
2023-02-25T09:00:40.150Z,2.82
2023-02-25T09:03:06.875Z,3.00
2023-02-25T09:05:33.482Z,2.84
2023-02-25T09:07:59.908Z,3.22
2023-02-25T09:10:26.320Z,3.39
2023-02-25T09:12:53.871Z,3.40
2023-02-25T09:15:21.055Z,3.37
2023-02-25T09:17:47.472Z,3.01
2023-02-25T09:20:17.307Z,2.79
2023-02-25T09:22:44.095Z,2.74
2023-02-25T09:25:10.622Z,2.46
2023-02-25T09:27:37.094Z,2.16
2023-02-25T09:30:05.505Z,2.47
2023-02-25T09:32:32.236Z,2.31
2023-02-25T09:35:05.767Z,2.32
2023-02-25T09:37:32.568Z,2.33
2023-02-25T09:39:59.115Z,2.34
2023-02-25T09:42:32.651Z,2.42
2023-02-25T09:45:03.785Z,2.39
2023-02-25T09:47:39.702Z,2.59
2023-02-25T09:50:12.104Z,2.50
2023-02-25T09:52:41.237Z,2.52
2023-02-25T09:55:17.541Z,2.46
2023-02-25T09:57:52.417Z,2.50
2023-02-25T10:00:24.861Z,2.48
2023-02-25T10:02:57.886Z,2.33
2023-02-25T10:05:32.538Z,2.36
2023-02-25T10:08:10.534Z,2.31
2023-02-25T10:10:45.987Z,2.42
2023-02-25T10:13:25.523Z,2.36
2023-02-25T10:16:01.949Z,2.21
2023-02-25T10:18:51.794Z,2.27
2023-02-25T10:21:29.985Z,2.31
2023-02-25T10:24:19.901Z,2.44
2023-02-25T10:26:50.093Z,2.69
2023-02-25T10:29:27.512Z,2.73
2023-02-25T10:31:58.864Z,2.85
2023-02-25T10:34:28.200Z,3.10
2023-02-25T10:36:56.718Z,3.41
2023-02-25T10:39:24.082Z,3.62
2023-02-25T10:41:50.810Z,3.73
2023-02-25T10:44:17.590Z,3.63
2023-02-25T10:46:53.745Z,3.56
2023-02-25T10:49:22.280Z,3.23
2023-02-25T10:51:57.641Z,3.48
2023-02-25T10:54:27.426Z,3.60
2023-02-25T10:56:54.713Z,3.68
2023-02-25T10:59:30.795Z,3.58
2023-02-25T11:01:59.311Z,3.41
2023-02-25T11:04:31.797Z,3.58
2023-02-25T11:06:58.928Z,3.40
2023-02-25T11:09:37.213Z,3.48
2023-02-25T11:12:17.436Z,3.54
2023-02-25T11:14:43.897Z,3.46
2023-02-25T11:17:15.014Z,3.57
2023-02-25T11:19:43.862Z,3.32
2023-02-25T11:22:17.782Z,3.29
2023-02-25T11:24:54.662Z,3.48
2023-02-25T11:27:31.743Z,3.72
2023-02-25T11:30:03.433Z,3.47
2023-02-25T11:32:32.578Z,3.56
2023-02-25T11:35:04.604Z,3.73
2023-02-25T11:37:37.195Z,3.57
2023-02-25T11:40:20.138Z,3.47
2023-02-25T11:43:00.840Z,3.30
2023-02-25T11:45:29.630Z,3.31
2023-02-25T11:47:57.059Z,3.33
2023-02-25T11:50:26.792Z,3.45
2023-02-25T11:53:01.699Z,3.70
2023-02-25T11:55:45.682Z,3.89
2023-02-25T11:58:22.485Z,4.18
2023-02-25T12:00:57.874Z,4.35
2023-02-25T12:03:48.328Z,4.26
2023-02-25T12:06:27.716Z,4.33
2023-02-25T12:09:19.716Z,4.21
2023-02-25T12:12:19.350Z,4.12
2023-02-25T12:15:19.460Z,4.18
2023-02-25T12:18:10.526Z,3.85
2023-02-25T12:21:25.400Z,4.02
2023-02-25T12:24:21.074Z,4.10
2023-02-25T12:27:16.384Z,4.23
2023-02-25T12:30:20.056Z,4.31
2023-02-25T12:32:59.114Z,4.61
2023-02-25T12:35:44.315Z,4.91
2023-02-25T12:38:52.445Z,4.37
2023-02-25T12:41:45.903Z,4.51
2023-02-25T12:44:40.063Z,4.61
2023-02-25T12:47:22.913Z,4.62
2023-02-25T12:50:07.859Z,4.28
2023-02-25T12:52:47.310Z,4.30
2023-02-25T12:55:45.959Z,4.19
2023-02-25T12:58:33.107Z,3.88
2023-02-25T13:01:12.732Z,3.75
2023-02-25T13:04:10.185Z,3.60
2023-02-25T13:07:06.520Z,3.53
2023-02-25T13:09:51.213Z,3.91
2023-02-25T13:12:33.619Z,4.02
2023-02-25T13:15:09.002Z,4.32
2023-02-25T13:17:56.222Z,4.36
2023-02-25T13:20:36.406Z,4.63
2023-02-25T13:23:21.905Z,4.90
2023-02-25T13:26:06.009Z,4.70
2023-02-25T13:28:55.778Z,4.92
2023-02-25T13:31:34.893Z,4.96
2023-02-25T13:34:13.998Z,4.69
2023-02-25T13:36:54.156Z,4.50
2023-02-25T13:39:54.664Z,4.72
2023-02-25T13:42:34.689Z,5.19
2023-02-25T13:45:33.376Z,5.25
2023-02-25T13:48:22.844Z,5.34
2023-02-25T13:51:02.751Z,5.50
2023-02-25T13:54:05.780Z,5.76
2023-02-25T13:56:51.023Z,6.05
2023-02-25T13:59:38.410Z,5.79
2023-02-25T14:02:26.430Z,5.44
2023-02-25T14:05:17.061Z,5.01
2023-02-25T14:08:00.576Z,5.06
2023-02-25T14:10:40.160Z,4.98
2023-02-25T14:13:30.825Z,4.84
2023-02-25T14:16:04.516Z,4.93
2023-02-25T14:18:52.848Z,4.77
2023-02-25T14:21:49.154Z,4.41
2023-02-25T14:24:22.152Z,4.50
2023-02-25T14:27:04.482Z,4.23
2023-02-25T14:29:42.446Z,4.20
2023-02-25T14:32:31.310Z,4.05
2023-02-25T14:35:25.933Z,3.88
2023-02-25T14:38:01.366Z,4.01
2023-02-25T14:40:31.890Z,3.93
2023-02-25T14:43:12.075Z,3.97
2023-02-25T14:45:44.203Z,3.84
2023-02-25T14:48:17.158Z,3.78
2023-02-25T14:50:48.468Z,3.70
2023-02-25T14:53:54.547Z,3.59
2023-02-25T14:56:48.089Z,3.62
2023-02-25T14:59:31.162Z,3.59
2023-02-25T15:02:29.515Z,3.53
2023-02-25T15:05:32.100Z,3.33
2023-02-25T15:08:20.900Z,3.34
2023-02-25T15:11:03.309Z,3.28
2023-02-25T15:14:03.358Z,3.27
2023-02-25T15:16:55.988Z,3.22
2023-02-25T15:19:47.647Z,3.19
2023-02-25T15:22:21.271Z,3.22
2023-02-25T15:24:48.601Z,3.29
2023-02-25T15:27:49.849Z,3.33
2023-02-25T15:30:19.172Z,3.48
2023-02-25T15:32:51.958Z,3.46
2023-02-25T15:35:21.657Z,3.37
2023-02-25T15:38:06.606Z,3.39
2023-02-25T15:40:48.930Z,3.31
2023-02-25T15:43:40.073Z,3.31
2023-02-25T15:46:37.348Z,3.20
2023-02-25T15:49:14.742Z,3.21
2023-02-25T15:51:44.222Z,3.03
2023-02-25T15:54:11.540Z,3.02
2023-02-25T15:56:57.239Z,2.98
2023-02-25T15:59:41.482Z,2.89
2023-02-25T16:02:41.102Z,2.86
2023-02-25T16:05:21.340Z,2.87
2023-02-25T16:07:51.054Z,2.84
2023-02-25T16:10:26.122Z,2.86
2023-02-25T16:12:55.410Z,2.94
2023-02-25T16:15:28.365Z,2.98
2023-02-25T16:17:57.256Z,2.87
2023-02-25T16:20:28.048Z,2.86
2023-02-25T16:22:58.520Z,2.79
2023-02-25T16:25:41.601Z,2.72
2023-02-25T16:28:19.889Z,2.71
2023-02-25T16:30:55.516Z,2.90
2023-02-25T16:33:31.586Z,2.88
2023-02-25T16:36:07.631Z,2.74
2023-02-25T16:38:45.196Z,2.67
2023-02-25T16:41:14.848Z,2.69
2023-02-25T16:43:43.947Z,2.66
2023-02-25T16:46:15.492Z,2.66
2023-02-25T16:48:49.546Z,2.61
2023-02-25T16:51:23.764Z,2.59
2023-02-25T16:53:55.226Z,2.60
2023-02-25T16:56:28.270Z,2.57
2023-02-25T16:59:00.333Z,2.54
2023-02-25T17:01:32.697Z,2.52
2023-02-25T17:04:13.890Z,2.48
2023-02-25T17:06:40.854Z,2.49
2023-02-25T17:09:21.997Z,2.42
2023-02-25T17:11:58.307Z,2.54
2023-02-25T17:14:25.242Z,2.54
2023-02-25T17:16:53.021Z,2.52
2023-02-25T17:19:23.571Z,2.53
2023-02-25T17:21:53.218Z,2.47
2023-02-25T17:24:26.523Z,2.46
2023-02-25T17:26:53.665Z,2.41
2023-02-25T17:29:20.912Z,2.36
2023-02-25T17:31:50.842Z,2.35
2023-02-25T17:34:22.259Z,2.29
2023-02-25T17:36:53.326Z,2.31
2023-02-25T17:39:20.605Z,2.31
2023-02-25T17:41:47.977Z,2.61
2023-02-25T17:44:44.377Z,2.99
2023-02-25T17:47:18.550Z,3.25
2023-02-25T17:49:46.482Z,3.36
2023-02-25T17:52:19.090Z,2.89
2023-02-25T17:54:47.811Z,2.56
2023-02-25T17:57:17.495Z,2.51
2023-02-25T17:59:50.195Z,2.46
2023-02-25T18:02:33.189Z,2.29
2023-02-25T18:05:21.586Z,2.29
2023-02-25T18:08:07.933Z,1.83
2023-02-25T18:10:54.427Z,1.25
2023-02-25T18:13:25.409Z,1.03
2023-02-25T18:16:40.196Z,0.80
2023-02-25T18:19:37.993Z,0.67
2023-02-25T18:22:07.928Z,0.39
2023-02-25T18:24:37.286Z,0.32
2023-02-25T18:27:19.311Z,0.31
2023-02-25T18:29:46.079Z,0.27
2023-02-25T18:32:13.036Z,0.09
2023-02-25T18:34:39.890Z,0.03
2023-02-25T18:37:09.496Z,-0.03
2023-02-25T18:39:36.911Z,-0.11
2023-02-25T18:42:04.546Z,-0.13
2023-02-25T18:44:33.142Z,-0.11
2023-02-25T18:46:59.710Z,-0.14
2023-02-25T18:49:26.247Z,-0.19
2023-02-25T18:51:53.062Z,-0.62
2023-02-25T18:54:21.325Z,-0.25
2023-02-25T18:56:47.751Z,-0.13
2023-02-25T18:59:14.660Z,-0.15
2023-02-25T19:01:42.795Z,-0.13
2023-02-25T19:04:14.590Z,-0.10
2023-02-25T19:06:41.097Z,-0.11
2023-02-25T19:09:07.663Z,-0.11
2023-02-25T19:11:37.191Z,-0.08
2023-02-25T19:14:05.108Z,-0.03
2023-02-25T19:16:31.875Z,0.13
2023-02-25T19:18:58.527Z,0.03
2023-02-25T19:21:25.009Z,0.11
2023-02-25T19:23:52.942Z,0.07
2023-02-25T19:26:19.912Z,0.08
2023-02-25T19:28:47.137Z,-0.05
2023-02-25T19:31:14.071Z,0.02
2023-02-25T19:33:43.455Z,0.02
2023-02-25T19:36:11.242Z,-0.05
2023-02-25T19:38:38.078Z,-0.11
2023-02-25T19:41:05.835Z,0.00
2023-02-25T19:43:33.400Z,-0.03
2023-02-25T19:46:00.685Z,-0.01
2023-02-25T19:48:27.476Z,-0.01
2023-02-25T19:50:54.696Z,0.02
2023-02-25T19:53:21.269Z,-0.03
2023-02-25T19:55:47.944Z,0.03
2023-02-25T19:58:14.966Z,-0.10
2023-02-25T20:00:46.786Z,-0.10
2023-02-25T20:03:14.893Z,0.03
2023-02-25T20:05:41.796Z,0.04
2023-02-25T20:08:08.721Z,0.04
2023-02-25T20:10:35.254Z,-0.04
2023-02-25T20:13:01.940Z,-0.03
2023-02-25T20:15:28.419Z,-0.04
2023-02-25T20:17:56.722Z,-0.06
2023-02-25T20:20:24.534Z,-0.04
2023-02-25T20:22:51.250Z,-0.09
2023-02-25T20:25:18.598Z,-0.11
2023-02-25T20:27:45.199Z,-0.08
2023-02-25T20:30:14.036Z,0.09
2023-02-25T20:32:41.612Z,0.05
2023-02-25T20:35:15.107Z,0.07
2023-02-25T20:37:53.747Z,-0.05
2023-02-25T20:40:20.504Z,0.00
2023-02-25T20:42:47.127Z,0.00
2023-02-25T20:45:15.048Z,0.04
2023-02-25T20:47:41.851Z,-0.04
2023-02-25T20:50:10.216Z,-0.05
2023-02-25T20:52:37.034Z,-0.08
2023-02-25T20:55:06.735Z,-0.13
2023-02-25T20:57:33.622Z,-0.08
2023-02-25T21:00:01.342Z,-0.43
2023-02-25T21:02:27.933Z,-0.82
2023-02-25T21:04:54.447Z,-0.99
2023-02-25T21:07:21.086Z,-0.99
2023-02-25T21:09:47.931Z,-0.94
2023-02-25T21:12:15.098Z,-0.87
2023-02-25T21:14:41.542Z,-0.88
2023-02-25T21:17:08.668Z,-0.74
2023-02-25T21:19:36.567Z,-0.93
2023-02-25T21:22:03.098Z,-0.93
2023-02-25T21:24:32.901Z,-1.01
2023-02-25T21:26:59.953Z,-1.02
2023-02-25T21:29:27.193Z,-1.04
2023-02-25T21:31:53.737Z,-0.82
2023-02-25T21:34:20.381Z,-0.78
2023-02-25T21:36:46.817Z,-0.87
2023-02-25T21:39:13.422Z,-0.90
2023-02-25T21:41:42.661Z,-0.89
2023-02-25T21:44:11.423Z,-0.86
2023-02-25T21:46:41.253Z,-0.87
2023-02-25T21:49:09.750Z,-0.87
2023-02-25T21:51:36.767Z,-0.74
2023-02-25T21:54:05.975Z,-0.71
2023-02-25T21:56:35.112Z,-0.70
2023-02-25T21:59:05.018Z,-0.59
2023-02-25T22:01:33.861Z,-0.64
2023-02-25T22:04:01.469Z,-0.70
2023-02-25T22:06:28.699Z,-0.68
2023-02-25T22:08:56.329Z,-0.60
2023-02-25T22:11:25.094Z,-0.59
2023-02-25T22:13:52.036Z,-0.60
2023-02-25T22:16:22.423Z,-0.63
2023-02-25T22:18:49.624Z,-0.68
2023-02-25T22:21:18.945Z,-0.75
2023-02-25T22:23:47.572Z,-0.76
2023-02-25T22:26:15.694Z,-0.78
2023-02-25T22:28:43.745Z,-0.86
2023-02-25T22:31:11.245Z,-0.89
2023-02-25T22:33:38.909Z,-0.91
2023-02-25T22:36:06.729Z,-0.92
2023-02-25T22:38:36.211Z,-0.90
2023-02-25T22:41:03.373Z,-0.96
2023-02-25T22:43:30.438Z,-0.85
2023-02-25T22:46:04.727Z,-0.90
2023-02-25T22:48:31.328Z,-0.92
2023-02-25T22:50:57.868Z,-0.69
2023-02-25T22:53:24.306Z,-0.79
2023-02-25T22:55:51.541Z,-0.88
2023-02-25T22:58:17.978Z,-0.89
2023-02-25T23:00:44.381Z,-1.01
2023-02-25T23:03:11.148Z,-1.06
2023-02-25T23:05:37.783Z,-0.98
2023-02-25T23:08:08.146Z,-0.97
2023-02-25T23:10:35.415Z,-0.88
2023-02-25T23:13:07.294Z,-1.26
2023-02-25T23:15:34.735Z,-0.96
2023-02-25T23:18:02.858Z,-1.04
2023-02-25T23:20:30.603Z,-0.93
2023-02-25T23:23:02.885Z,-0.90
2023-02-25T23:25:34.821Z,-1.30
2023-02-25T23:28:03.841Z,-1.11
2023-02-25T23:30:30.446Z,-1.15
2023-02-25T23:32:57.302Z,-0.13
2023-02-25T23:35:24.184Z,-0.73
2023-02-25T23:37:50.800Z,-0.90
2023-02-25T23:40:18.416Z,-0.54
2023-02-25T23:42:45.612Z,-0.51
2023-02-25T23:45:15.809Z,-0.74
2023-02-25T23:47:42.886Z,-0.71
2023-02-25T23:50:11.603Z,-0.65
2023-02-25T23:52:38.444Z,-0.32
2023-02-25T23:55:05.881Z,-0.46
2023-02-25T23:57:32.691Z,-0.04
2023-02-25T23:59:59.109Z,-0.38
